Woodbine, Illinois
Current Conditions -  °F | °C
As of 8:15 AM on Monday 20 Oct 2014 (Local Time) from KSFY Reporting Station
Clear Clear  
Wind Chill: 50°   Ceiling: Unl
Heat Index: 50°   Visibility: 10mi
Dew Point: 44°   Wind: 7mph
Humidity: 78%   Direction: 320°NW
Pressure: 29.89"   Gusts: NA
Location:  42.3424°N, 90.0324°W
Report Text: KSFY 201315Z AUTO 32006KT 10SM CLR 10/07 A2989 RMK AO2 T01020066
Loading
Personal Weather Stations






























Interactive Weather Map
Tropical Storm Tracking
New forecast layout! Learn more

10-Day Weather Forecast

Advertisements
Track Severe Weather on mobile